createdAt,value
2019-02-14T00:01:43.346Z,6.54
2019-02-14T00:04:25.573Z,6.51
2019-02-14T00:06:59.406Z,6.45
2019-02-14T00:09:33.203Z,6.46
2019-02-14T00:12:06.904Z,6.43
2019-02-14T00:14:52.429Z,6.44
2019-02-14T00:17:26.744Z,6.38
2019-02-14T00:20:00.410Z,6.39
2019-02-14T00:22:34.355Z,6.39
2019-02-14T00:25:08.382Z,6.40
2019-02-14T00:27:51.633Z,6.44
2019-02-14T00:30:33.990Z,6.37
2019-02-14T00:33:16.765Z,6.29
2019-02-14T00:35:50.138Z,6.21
2019-02-14T00:38:24.689Z,6.21
2019-02-14T00:40:58.480Z,6.10
2019-02-14T00:43:31.994Z,6.01
2019-02-14T00:46:06.072Z,6.00
2019-02-14T00:48:39.459Z,6.04
2019-02-14T00:51:12.899Z,5.96
2019-02-14T00:53:46.633Z,5.95
2019-02-14T00:56:20.394Z,5.98
2019-02-14T00:58:53.772Z,5.97
2019-02-14T01:01:27.227Z,5.93
2019-02-14T01:04:01.277Z,5.98
2019-02-14T01:06:34.384Z,5.96
2019-02-14T01:09:07.492Z,5.90
2019-02-14T01:11:50.134Z,5.91
2019-02-14T01:14:33.189Z,6.00
2019-02-14T01:17:06.626Z,5.90
2019-02-14T01:19:39.176Z,5.91
2019-02-14T01:22:12.688Z,5.90
2019-02-14T01:24:45.868Z,5.83
2019-02-14T01:27:19.389Z,5.91
2019-02-14T01:29:53.560Z,5.87
2019-02-14T01:32:26.693Z,5.73
2019-02-14T01:34:59.791Z,5.65
2019-02-14T01:37:41.865Z,5.65
2019-02-14T01:40:16.129Z,5.54
2019-02-14T01:42:49.184Z,5.45
2019-02-14T01:45:23.073Z,5.47
2019-02-14T01:48:05.596Z,5.53
2019-02-14T01:50:38.487Z,5.48
2019-02-14T01:53:12.821Z,5.51
2019-02-14T01:55:46.561Z,5.48
2019-02-14T01:58:29.491Z,5.52
2019-02-14T02:01:12.090Z,5.52
2019-02-14T02:03:46.396Z,5.43
2019-02-14T02:06:28.832Z,5.45
2019-02-14T02:09:18.016Z,5.44
2019-02-14T02:11:59.863Z,5.44
2019-02-14T02:14:32.939Z,5.44
2019-02-14T02:17:06.582Z,5.43
2019-02-14T02:19:40.097Z,5.37
2019-02-14T02:22:22.567Z,5.39
2019-02-14T02:25:05.422Z,5.41
2019-02-14T02:27:48.150Z,5.38
2019-02-14T02:30:20.455Z,5.30
2019-02-14T02:33:03.507Z,5.33
2019-02-14T02:35:36.906Z,5.29
2019-02-14T02:38:19.437Z,5.35
2019-02-14T02:41:02.151Z,5.36
2019-02-14T02:43:35.895Z,5.35
2019-02-14T02:46:18.381Z,5.40
2019-02-14T02:48:52.465Z,5.36
2019-02-14T02:51:26.986Z,5.32
2019-02-14T02:54:04.452Z,5.25
2019-02-14T02:56:48.408Z,5.26
2019-02-14T02:59:22.152Z,5.18
2019-02-14T03:01:55.260Z,5.17
2019-02-14T03:04:29.011Z,5.11
2019-02-14T03:07:02.152Z,5.11
2019-02-14T03:09:34.716Z,5.11
2019-02-14T03:12:09.348Z,5.10
2019-02-14T03:14:42.820Z,5.11
2019-02-14T03:17:16.549Z,5.09
2019-02-14T03:19:50.321Z,5.11
2019-02-14T03:22:24.053Z,5.11
2019-02-14T03:24:57.779Z,5.08
2019-02-14T03:27:31.199Z,5.03
2019-02-14T03:30:05.315Z,5.08
2019-02-14T03:32:39.272Z,5.06
2019-02-14T03:35:22.786Z,5.07
2019-02-14T03:37:56.212Z,5.02
2019-02-14T03:40:30.046Z,4.97
2019-02-14T03:43:03.466Z,4.94
2019-02-14T03:45:37.144Z,4.92
2019-02-14T03:48:10.894Z,4.93
2019-02-14T03:50:43.963Z,4.88
2019-02-14T03:53:32.843Z,4.91
2019-02-14T03:56:14.940Z,4.94
2019-02-14T03:58:48.072Z,4.91
2019-02-14T04:01:21.238Z,4.93
2019-02-14T04:04:03.180Z,4.94
2019-02-14T04:06:37.115Z,4.81
2019-02-14T04:09:10.939Z,4.73
2019-02-14T04:11:53.216Z,4.68
2019-02-14T04:14:26.734Z,4.62
2019-02-14T04:16:59.878Z,4.56
2019-02-14T04:19:33.265Z,4.58
2019-02-14T04:22:15.401Z,4.63
2019-02-14T04:24:48.930Z,4.54
2019-02-14T04:27:22.398Z,4.61
2019-02-14T04:29:56.231Z,4.59
2019-02-14T04:32:29.629Z,4.64
2019-02-14T04:35:03.341Z,4.59
2019-02-14T04:37:36.447Z,4.47
2019-02-14T04:40:11.026Z,4.50
2019-02-14T04:42:45.457Z,4.51
2019-02-14T04:45:19.517Z,4.43
2019-02-14T04:47:52.963Z,4.34
2019-02-14T04:50:26.446Z,4.33
2019-02-14T04:52:59.621Z,4.29
2019-02-14T04:55:33.043Z,4.30
2019-02-14T04:58:06.560Z,4.31
2019-02-14T05:00:49.255Z,4.40
2019-02-14T05:03:32.021Z,4.35
2019-02-14T05:06:14.587Z,4.38
2019-02-14T05:08:58.092Z,4.34
2019-02-14T05:11:31.214Z,4.26
2019-02-14T05:14:13.862Z,4.28
2019-02-14T05:16:57.070Z,4.22
2019-02-14T05:19:39.889Z,4.30
2019-02-14T05:22:22.117Z,4.24
2019-02-14T05:24:55.498Z,4.26
2019-02-14T05:27:28.945Z,4.26
2019-02-14T05:30:02.050Z,4.17
2019-02-14T05:32:35.813Z,4.10
2019-02-14T05:35:09.293Z,3.95
2019-02-14T05:37:51.600Z,3.94
2019-02-14T05:40:34.057Z,3.91
2019-02-14T05:43:16.850Z,3.70
2019-02-14T05:45:49.962Z,3.66
2019-02-14T05:48:23.402Z,3.63
2019-02-14T05:50:57.823Z,3.54
2019-02-14T05:53:31.340Z,3.55
2019-02-14T05:56:05.094Z,3.62
2019-02-14T05:58:38.787Z,3.47
2019-02-14T06:01:13.306Z,3.39
2019-02-14T06:03:46.800Z,3.25
2019-02-14T06:06:20.219Z,3.18
2019-02-14T06:08:54.602Z,3.14
2019-02-14T06:11:28.324Z,3.12
2019-02-14T06:14:01.708Z,3.18
2019-02-14T06:16:35.453Z,3.31
2019-02-14T06:19:08.887Z,3.27
2019-02-14T06:21:42.160Z,3.22
2019-02-14T06:24:15.582Z,3.17
2019-02-14T06:26:48.731Z,3.09
2019-02-14T06:29:31.009Z,3.07
2019-02-14T06:32:04.121Z,3.01
2019-02-14T06:34:37.877Z,2.89
2019-02-14T06:37:10.988Z,2.87
2019-02-14T06:39:44.117Z,2.87
2019-02-14T06:42:26.540Z,2.85
2019-02-14T06:45:00.164Z,2.80
2019-02-14T06:47:33.649Z,2.75
2019-02-14T06:50:06.651Z,2.80
2019-02-14T06:52:40.514Z,2.78
2019-02-14T06:55:14.011Z,2.74
2019-02-14T06:57:49.364Z,2.76
2019-02-14T07:00:22.930Z,2.87
2019-02-14T07:02:56.937Z,2.92
2019-02-14T07:05:34.276Z,3.00
2019-02-14T07:08:06.999Z,3.08
2019-02-14T07:10:40.792Z,3.11
2019-02-14T07:13:14.529Z,3.09
2019-02-14T07:15:47.622Z,3.13
2019-02-14T07:18:23.176Z,3.26
2019-02-14T07:20:57.017Z,3.31
2019-02-14T07:23:30.374Z,3.36
2019-02-14T07:26:04.932Z,3.20
2019-02-14T07:28:53.257Z,3.22
2019-02-14T07:31:36.014Z,3.31
2019-02-14T07:34:14.981Z,3.22
2019-02-14T07:36:59.539Z,3.43
2019-02-14T07:39:32.675Z,3.42
2019-02-14T07:42:06.123Z,3.54
2019-02-14T07:44:40.031Z,3.57
2019-02-14T07:47:13.095Z,3.64
2019-02-14T07:49:55.284Z,3.79
2019-02-14T07:52:28.680Z,3.87
2019-02-14T07:55:01.267Z,3.94
2019-02-14T07:57:44.837Z,4.09
2019-02-14T08:00:18.108Z,4.10
2019-02-14T08:02:51.211Z,4.12
2019-02-14T08:05:34.024Z,4.21
2019-02-14T08:08:20.941Z,4.28
2019-02-14T08:11:04.897Z,4.41
2019-02-14T08:13:47.649Z,4.49
2019-02-14T08:16:30.110Z,4.41
2019-02-14T08:19:03.209Z,4.42
2019-02-14T08:21:37.414Z,4.41
2019-02-14T08:24:10.841Z,4.44
2019-02-14T08:26:44.685Z,4.49
2019-02-14T08:29:18.881Z,4.60
2019-02-14T08:32:01.223Z,4.66
2019-02-14T08:34:49.434Z,4.73
2019-02-14T08:37:22.568Z,4.70
2019-02-14T08:40:05.375Z,4.78
2019-02-14T08:42:48.050Z,4.82
2019-02-14T08:45:21.252Z,4.79
2019-02-14T08:47:56.533Z,4.86
2019-02-14T08:50:29.942Z,4.87
2019-02-14T08:53:03.783Z,4.91
2019-02-14T08:55:37.331Z,4.96
2019-02-14T08:58:11.464Z,4.99
2019-02-14T09:00:45.454Z,5.08
2019-02-14T09:03:19.247Z,5.09
2019-02-14T09:05:53.061Z,5.09
2019-02-14T09:08:27.512Z,5.11
2019-02-14T09:11:09.867Z,5.25
2019-02-14T09:13:43.369Z,5.24
2019-02-14T09:16:16.904Z,5.32
2019-02-14T09:18:50.317Z,5.38
2019-02-14T09:21:25.792Z,5.39
2019-02-14T09:23:59.189Z,5.45
2019-02-14T09:26:32.859Z,5.55
2019-02-14T09:29:06.290Z,5.64
2019-02-14T09:31:39.798Z,5.77
2019-02-14T09:34:13.529Z,5.83
2019-02-14T09:36:49.465Z,5.92
2019-02-14T09:39:40.648Z,6.04
2019-02-14T09:42:08.263Z,6.03
2019-02-14T09:44:41.866Z,6.12
2019-02-14T09:47:16.046Z,6.18
2019-02-14T09:49:49.730Z,6.21
2019-02-14T09:52:23.460Z,6.26
2019-02-14T09:54:57.140Z,6.27
2019-02-14T09:57:39.579Z,6.35
2019-02-14T10:00:15.476Z,6.38
2019-02-14T10:02:57.928Z,6.52
2019-02-14T10:05:40.460Z,6.57
2019-02-14T10:08:14.377Z,6.65
2019-02-14T10:11:02.520Z,6.93
2019-02-14T10:13:36.137Z,6.92
2019-02-14T10:16:09.246Z,6.99
2019-02-14T10:18:51.703Z,7.20
2019-02-14T10:21:34.189Z,7.25
2019-02-14T10:24:08.134Z,7.31
2019-02-14T10:26:51.037Z,7.54
2019-02-14T10:29:33.516Z,7.65
2019-02-14T10:32:06.375Z,7.58
2019-02-14T10:34:39.842Z,7.76
2019-02-14T10:37:13.428Z,7.82
2019-02-14T10:39:46.502Z,7.84
2019-02-14T10:42:29.366Z,7.96
2019-02-14T10:45:14.182Z,8.04
2019-02-14T10:47:56.628Z,8.23
2019-02-14T10:50:39.494Z,8.29
2019-02-14T10:53:22.854Z,8.30
2019-02-14T10:55:56.845Z,8.26
2019-02-14T10:58:30.869Z,8.34
2019-02-14T11:01:04.791Z,8.31
2019-02-14T11:03:47.175Z,8.49
2019-02-14T11:06:20.903Z,8.52
2019-02-14T11:08:54.391Z,8.59
2019-02-14T11:11:28.819Z,8.58
2019-02-14T11:14:17.451Z,8.75
2019-02-14T11:16:51.822Z,8.73
2019-02-14T11:19:25.577Z,8.74
2019-02-14T11:21:59.087Z,8.87
2019-02-14T11:24:32.557Z,9.03
2019-02-14T11:27:04.590Z,9.14
2019-02-14T11:29:37.964Z,9.37
2019-02-14T11:32:11.466Z,9.36
2019-02-14T11:34:45.188Z,9.42
2019-02-14T11:37:19.076Z,9.53
2019-02-14T11:39:52.864Z,9.79
2019-02-14T11:42:26.672Z,9.78
2019-02-14T11:45:00.622Z,9.88
2019-02-14T11:47:45.511Z,10.14
2019-02-14T11:50:27.830Z,10.26
2019-02-14T11:53:00.970Z,10.16
2019-02-14T11:55:34.582Z,10.03
2019-02-14T11:58:08.796Z,10.06
2019-02-14T12:00:42.339Z,10.00
2019-02-14T12:03:16.056Z,10.10
2019-02-14T12:05:49.453Z,10.09
2019-02-14T12:08:22.535Z,10.35
2019-02-14T12:10:55.653Z,10.12
2019-02-14T12:13:39.608Z,10.29
2019-02-14T12:16:24.007Z,10.39
2019-02-14T12:18:57.163Z,10.57
2019-02-14T12:21:30.610Z,10.71
2019-02-14T12:24:04.430Z,10.70
2019-02-14T12:26:38.439Z,10.72
2019-02-14T12:29:10.789Z,10.73
2019-02-14T12:31:52.919Z,11.01
2019-02-14T12:34:26.060Z,10.94
2019-02-14T12:36:59.206Z,10.92
2019-02-14T12:39:42.184Z,11.15
2019-02-14T12:42:25.646Z,11.35
2019-02-14T12:44:59.128Z,11.24
2019-02-14T12:47:32.555Z,11.18
2019-02-14T12:50:06.396Z,11.20
2019-02-14T12:52:39.691Z,11.32
2019-02-14T12:55:15.007Z,11.20
2019-02-14T12:57:48.177Z,11.23
2019-02-14T13:00:22.262Z,11.40
2019-02-14T13:02:55.687Z,11.32
2019-02-14T13:05:29.432Z,11.41
2019-02-14T13:08:02.252Z,11.51
2019-02-14T13:10:34.612Z,11.54
2019-02-14T13:13:08.091Z,11.51
2019-02-14T13:15:41.522Z,11.59
2019-02-14T13:18:23.621Z,11.67
2019-02-14T13:20:57.441Z,11.68
2019-02-14T13:23:30.560Z,11.72
2019-02-14T13:26:04.017Z,11.86
2019-02-14T13:28:37.426Z,11.64
2019-02-14T13:31:10.926Z,11.74
2019-02-14T13:33:45.376Z,11.82
2019-02-14T13:36:18.801Z,11.95
2019-02-14T13:38:52.522Z,12.03
2019-02-14T13:41:31.051Z,12.04
2019-02-14T13:44:10.892Z,12.08
2019-02-14T13:46:53.332Z,12.04
2019-02-14T13:49:26.785Z,12.10
2019-02-14T13:52:00.219Z,12.19
2019-02-14T13:54:33.356Z,12.37
2019-02-14T13:57:06.832Z,12.39
2019-02-14T13:59:49.083Z,12.58
2019-02-14T14:02:22.223Z,12.52
2019-02-14T14:04:55.758Z,12.23
2019-02-14T14:07:29.562Z,12.24
2019-02-14T14:10:04.526Z,12.26
2019-02-14T14:12:38.569Z,12.23
2019-02-14T14:15:11.974Z,12.26
2019-02-14T14:17:45.390Z,12.27
2019-02-14T14:20:18.832Z,12.36
2019-02-14T14:22:52.400Z,12.30
2019-02-14T14:25:26.142Z,12.36
2019-02-14T14:27:59.561Z,12.28
2019-02-14T14:30:35.052Z,12.21
2019-02-14T14:33:08.194Z,12.15
2019-02-14T14:35:42.241Z,12.17
2019-02-14T14:38:16.011Z,12.15
2019-02-14T14:40:49.752Z,12.17
2019-02-14T14:43:40.447Z,12.07
2019-02-14T14:46:26.822Z,12.02
2019-02-14T14:49:03.185Z,12.00
2019-02-14T14:51:51.683Z,11.87
2019-02-14T14:54:26.095Z,11.74
2019-02-14T14:56:59.848Z,11.70
2019-02-14T14:59:33.409Z,11.74
2019-02-14T15:02:06.495Z,11.66
2019-02-14T15:04:48.698Z,11.65
2019-02-14T15:07:22.123Z,11.60
2019-02-14T15:09:57.555Z,11.53
2019-02-14T15:12:30.989Z,11.45
2019-02-14T15:15:04.349Z,11.45
2019-02-14T15:17:37.777Z,11.42
2019-02-14T15:20:10.915Z,11.37
2019-02-14T15:22:53.333Z,11.29
2019-02-14T15:25:35.857Z,11.21
2019-02-14T15:28:09.018Z,11.17
2019-02-14T15:30:42.932Z,11.05
2019-02-14T15:33:16.328Z,10.99
2019-02-14T15:35:49.420Z,10.88
2019-02-14T15:38:32.625Z,10.82
2019-02-14T15:41:15.854Z,10.74
2019-02-14T15:43:49.258Z,10.63
2019-02-14T15:46:22.409Z,10.54
2019-02-14T15:48:55.875Z,10.48
2019-02-14T15:51:39.408Z,10.40
2019-02-14T15:54:13.038Z,10.26
2019-02-14T15:56:46.164Z,10.22
2019-02-14T15:59:20.947Z,10.17
2019-02-14T16:01:54.224Z,10.10
2019-02-14T16:04:36.824Z,10.06
2019-02-14T16:07:09.918Z,9.99
2019-02-14T16:09:43.675Z,9.89
2019-02-14T16:12:19.559Z,9.89
2019-02-14T16:14:52.467Z,9.80
2019-02-14T16:17:25.944Z,9.69
2019-02-14T16:19:59.822Z,9.64
2019-02-14T16:22:32.901Z,9.52
2019-02-14T16:25:06.935Z,9.47
2019-02-14T16:27:40.221Z,9.41
2019-02-14T16:30:13.704Z,9.35
2019-02-14T16:32:48.002Z,9.29
2019-02-14T16:35:21.101Z,9.14
2019-02-14T16:37:53.938Z,9.02
2019-02-14T16:40:38.513Z,8.84
2019-02-14T16:43:11.278Z,8.74
2019-02-14T16:45:45.400Z,8.61
2019-02-14T16:48:18.853Z,8.32
2019-02-14T16:50:52.542Z,8.15
2019-02-14T16:53:27.590Z,7.97
2019-02-14T16:56:02.332Z,7.77
2019-02-14T16:58:36.498Z,7.59
2019-02-14T17:01:09.731Z,7.44
2019-02-14T17:03:43.719Z,7.29
2019-02-14T17:06:17.758Z,7.24
2019-02-14T17:09:07.315Z,7.18
2019-02-14T17:11:52.150Z,7.16
2019-02-14T17:14:34.545Z,7.02
2019-02-14T17:17:08.316Z,6.89
2019-02-14T17:19:51.382Z,6.95
2019-02-14T17:22:33.512Z,6.86
2019-02-14T17:25:07.354Z,6.57
2019-02-14T17:27:40.531Z,6.51
2019-02-14T17:30:13.934Z,6.44
2019-02-14T17:32:47.003Z,6.27
2019-02-14T17:35:29.595Z,6.17
2019-02-14T17:38:11.996Z,6.12
2019-02-14T17:40:46.312Z,6.04
2019-02-14T17:43:19.714Z,5.90
2019-02-14T17:46:02.275Z,6.03
2019-02-14T17:48:35.730Z,5.79
2019-02-14T17:51:09.229Z,5.70
2019-02-14T17:53:43.330Z,5.63
2019-02-14T17:56:25.842Z,5.67
2019-02-14T17:58:59.248Z,5.50
2019-02-14T18:01:34.264Z,5.48
2019-02-14T18:04:09.268Z,5.49
2019-02-14T18:06:42.923Z,5.40
2019-02-14T18:09:16.477Z,5.37
2019-02-14T18:11:50.244Z,5.30
2019-02-14T18:14:25.892Z,5.16
2019-02-14T18:17:00.290Z,5.14
2019-02-14T18:19:33.412Z,5.22
2019-02-14T18:22:15.842Z,5.22
2019-02-14T18:24:49.610Z,5.20
2019-02-14T18:27:24.736Z,5.19
2019-02-14T18:29:58.421Z,5.09
2019-02-14T18:32:31.659Z,5.09
2019-02-14T18:35:05.627Z,4.99
2019-02-14T18:37:38.719Z,4.87
2019-02-14T18:40:11.520Z,4.77
2019-02-14T18:43:01.477Z,4.92
2019-02-14T18:45:35.048Z,4.75
2019-02-14T18:48:10.463Z,4.71
2019-02-14T18:50:44.192Z,4.76
2019-02-14T18:53:18.586Z,4.74
2019-02-14T18:55:51.979Z,4.68
2019-02-14T18:58:26.703Z,4.54
2019-02-14T19:01:15.073Z,4.61
2019-02-14T19:03:48.495Z,4.35
2019-02-14T19:06:21.946Z,4.23
2019-02-14T19:08:55.077Z,4.29
2019-02-14T19:11:28.292Z,4.13
2019-02-14T19:14:11.005Z,4.00
2019-02-14T19:16:53.575Z,3.88
2019-02-14T19:19:27.026Z,3.84
2019-02-14T19:22:00.732Z,3.78
2019-02-14T19:24:34.496Z,3.77
2019-02-14T19:27:07.942Z,3.90
2019-02-14T19:29:41.120Z,3.97
2019-02-14T19:32:14.194Z,3.96
2019-02-14T19:34:56.662Z,3.90
2019-02-14T19:37:45.470Z,3.79
2019-02-14T19:40:28.618Z,3.80
2019-02-14T19:43:01.698Z,3.46
2019-02-14T19:45:36.765Z,3.39
2019-02-14T19:48:10.703Z,3.38
2019-02-14T19:50:53.966Z,3.40
2019-02-14T19:53:36.342Z,3.41
2019-02-14T19:56:09.807Z,3.26
2019-02-14T19:58:43.554Z,3.20
2019-02-14T20:01:26.583Z,3.18
2019-02-14T20:03:59.228Z,3.05
2019-02-14T20:06:34.047Z,3.01
2019-02-14T20:09:16.501Z,3.03
2019-02-14T20:11:58.937Z,3.12
2019-02-14T20:14:32.069Z,3.11
2019-02-14T20:17:05.769Z,3.07
2019-02-14T20:19:39.566Z,3.04
2019-02-14T20:22:12.652Z,3.01
2019-02-14T20:24:45.822Z,2.91
2019-02-14T20:27:32.555Z,2.90
2019-02-14T20:30:05.406Z,2.74
2019-02-14T20:32:50.448Z,2.80
2019-02-14T20:35:23.543Z,2.81
2019-02-14T20:37:56.659Z,2.71
2019-02-14T20:40:28.703Z,2.59
2019-02-14T20:43:01.732Z,2.45
2019-02-14T20:45:35.413Z,2.42
2019-02-14T20:48:08.885Z,2.46
2019-02-14T20:50:42.683Z,2.51
2019-02-14T20:53:27.196Z,2.51
2019-02-14T20:56:00.629Z,2.43
2019-02-14T20:58:34.083Z,2.38
2019-02-14T21:01:10.113Z,2.30
2019-02-14T21:03:52.432Z,2.47
2019-02-14T21:06:26.134Z,2.35
2019-02-14T21:09:00.575Z,2.19
2019-02-14T21:11:36.010Z,2.30
2019-02-14T21:14:09.241Z,2.29
2019-02-14T21:16:42.769Z,2.35
2019-02-14T21:19:31.221Z,2.27
2019-02-14T21:22:18.567Z,2.26
2019-02-14T21:24:50.227Z,2.23
2019-02-14T21:27:23.358Z,2.06
2019-02-14T21:29:57.322Z,2.09
2019-02-14T21:32:30.392Z,2.14
2019-02-14T21:35:13.058Z,2.08
2019-02-14T21:37:55.876Z,2.14
2019-02-14T21:40:29.109Z,2.11
2019-02-14T21:43:02.695Z,2.12
2019-02-14T21:45:36.048Z,2.06
2019-02-14T21:48:09.565Z,2.01
2019-02-14T21:50:43.898Z,2.00
2019-02-14T21:53:17.165Z,1.92
2019-02-14T21:55:50.706Z,1.95
2019-02-14T21:58:24.652Z,1.85
2019-02-14T22:00:57.806Z,1.89
2019-02-14T22:03:31.614Z,1.89
2019-02-14T22:06:05.230Z,1.87
2019-02-14T22:08:39.044Z,1.69
2019-02-14T22:11:12.458Z,1.68
2019-02-14T22:13:46.033Z,1.64
2019-02-14T22:16:19.267Z,1.63
2019-02-14T22:18:52.852Z,1.63
2019-02-14T22:21:39.449Z,1.62
2019-02-14T22:24:12.630Z,1.47
2019-02-14T22:26:46.191Z,1.39
2019-02-14T22:29:19.933Z,1.42
2019-02-14T22:31:53.404Z,1.35
2019-02-14T22:34:27.332Z,1.32
2019-02-14T22:37:01.177Z,1.23
2019-02-14T22:39:34.373Z,1.21
2019-02-14T22:42:08.218Z,1.26
2019-02-14T22:44:41.381Z,1.22
2019-02-14T22:47:15.536Z,1.25
2019-02-14T22:49:49.066Z,1.23
2019-02-14T22:52:24.261Z,1.30
2019-02-14T22:54:58.002Z,1.40
2019-02-14T22:57:32.105Z,1.26
2019-02-14T23:00:12.195Z,1.14
2019-02-14T23:02:46.449Z,1.00
2019-02-14T23:05:19.610Z,1.03
2019-02-14T23:07:52.066Z,1.03
2019-02-14T23:10:27.030Z,0.94
2019-02-14T23:13:00.172Z,0.95
2019-02-14T23:15:42.761Z,1.10
2019-02-14T23:18:26.253Z,1.04
2019-02-14T23:20:59.375Z,0.94
2019-02-14T23:23:32.886Z,0.99
2019-02-14T23:26:06.168Z,1.08
2019-02-14T23:28:40.082Z,0.90
2019-02-14T23:31:13.585Z,0.92
2019-02-14T23:33:46.649Z,0.86
2019-02-14T23:36:29.471Z,0.99
2019-02-14T23:39:12.323Z,1.01
2019-02-14T23:41:54.938Z,0.95
2019-02-14T23:44:37.570Z,0.81
2019-02-14T23:47:11.133Z,0.81
2019-02-14T23:49:44.250Z,0.74
2019-02-14T23:52:17.801Z,0.63
2019-02-14T23:54:51.195Z,0.82
2019-02-14T23:57:35.136Z,0.91
